sensor_id;sensor_type;location;lat;lon;timestamp;P1;durP1;ratioP1;P2;durP2;ratioP2
16998;SDS011;10211;49.476;11.010;2023-09-12T00:01:23;8.40;;;7.60;;
16998;SDS011;10211;49.476;11.010;2023-09-12T00:03:49;10.00;;;7.63;;
16998;SDS011;10211;49.476;11.010;2023-09-12T00:06:16;8.07;;;7.23;;
16998;SDS011;10211;49.476;11.010;2023-09-12T00:08:43;8.53;;;6.83;;
16998;SDS011;10211;49.476;11.010;2023-09-12T00:11:11;8.57;;;7.47;;
16998;SDS011;10211;49.476;11.010;2023-09-12T00:13:39;8.93;;;7.03;;
16998;SDS011;10211;49.476;11.010;2023-09-12T00:16:07;11.10;;;7.73;;
16998;SDS011;10211;49.476;11.010;2023-09-12T00:18:34;9.20;;;7.97;;
16998;SDS011;10211;49.476;11.010;2023-09-12T00:21:01;7.80;;;7.00;;
16998;SDS011;10211;49.476;11.010;2023-09-12T00:23:28;8.53;;;7.50;;
16998;SDS011;10211;49.476;11.010;2023-09-12T00:25:56;8.17;;;7.37;;
16998;SDS011;10211;49.476;11.010;2023-09-12T00:28:25;8.60;;;7.67;;
16998;SDS011;10211;49.476;11.010;2023-09-12T00:30:53;7.90;;;7.03;;
16998;SDS011;10211;49.476;11.010;2023-09-12T00:39:09;9.20;;;8.07;;
16998;SDS011;10211;49.476;11.010;2023-09-12T00:41:36;10.57;;;8.83;;
16998;SDS011;10211;49.476;11.010;2023-09-12T00:44:03;11.30;;;8.67;;
16998;SDS011;10211;49.476;11.010;2023-09-12T00:46:31;10.30;;;7.90;;
16998;SDS011;10211;49.476;11.010;2023-09-12T00:48:58;9.13;;;8.17;;
16998;SDS011;10211;49.476;11.010;2023-09-12T00:51:25;9.83;;;7.57;;
16998;SDS011;10211;49.476;11.010;2023-09-12T00:53:52;9.67;;;8.03;;
16998;SDS011;10211;49.476;11.010;2023-09-12T00:56:20;10.90;;;7.57;;
16998;SDS011;10211;49.476;11.010;2023-09-12T00:58:47;9.07;;;8.17;;
16998;SDS011;10211;49.476;11.010;2023-09-12T01:01:16;10.37;;;8.73;;
16998;SDS011;10211;49.476;11.010;2023-09-12T01:03:44;11.13;;;8.83;;
16998;SDS011;10211;49.476;11.010;2023-09-12T01:06:11;11.97;;;8.60;;
16998;SDS011;10211;49.476;11.010;2023-09-12T01:08:40;11.07;;;8.07;;
16998;SDS011;10211;49.476;11.010;2023-09-12T01:11:07;10.53;;;7.90;;
16998;SDS011;10211;49.476;11.010;2023-09-12T01:13:34;12.97;;;8.10;;
16998;SDS011;10211;49.476;11.010;2023-09-12T01:16:01;8.70;;;7.80;;
16998;SDS011;10211;49.476;11.010;2023-09-12T01:18:28;8.77;;;7.97;;
16998;SDS011;10211;49.476;11.010;2023-09-12T01:21:02;9.30;;;7.87;;
16998;SDS011;10211;49.476;11.010;2023-09-12T01:23:48;9.47;;;8.30;;
16998;SDS011;10211;49.476;11.010;2023-09-12T01:26:29;13.47;;;8.60;;
16998;SDS011;10211;49.476;11.010;2023-09-12T01:29:02;10.20;;;7.50;;
16998;SDS011;10211;49.476;11.010;2023-09-12T01:31:32;12.07;;;8.00;;
16998;SDS011;10211;49.476;11.010;2023-09-12T01:34:07;10.83;;;8.93;;
16998;SDS011;10211;49.476;11.010;2023-09-12T01:36:35;10.33;;;8.03;;
16998;SDS011;10211;49.476;11.010;2023-09-12T01:39:02;8.80;;;7.77;;
16998;SDS011;10211;49.476;11.010;2023-09-12T01:41:29;8.13;;;7.30;;
16998;SDS011;10211;49.476;11.010;2023-09-12T01:43:58;8.37;;;7.57;;
16998;SDS011;10211;49.476;11.010;2023-09-12T01:46:29;14.87;;;8.83;;
16998;SDS011;10211;49.476;11.010;2023-09-12T01:48:59;11.93;;;8.63;;
16998;SDS011;10211;49.476;11.010;2023-09-12T01:51:28;8.50;;;7.67;;
16998;SDS011;10211;49.476;11.010;2023-09-12T01:53:55;8.93;;;8.03;;
16998;SDS011;10211;49.476;11.010;2023-09-12T01:56:22;8.10;;;7.30;;
16998;SDS011;10211;49.476;11.010;2023-09-12T01:58:50;10.83;;;8.97;;
16998;SDS011;10211;49.476;11.010;2023-09-12T02:01:16;7.77;;;6.97;;
16998;SDS011;10211;49.476;11.010;2023-09-12T02:03:44;9.20;;;7.60;;
16998;SDS011;10211;49.476;11.010;2023-09-12T02:06:11;7.93;;;7.13;;
16998;SDS011;10211;49.476;11.010;2023-09-12T02:08:38;8.47;;;7.60;;
16998;SDS011;10211;49.476;11.010;2023-09-12T02:11:05;13.50;;;8.70;;
16998;SDS011;10211;49.476;11.010;2023-09-12T02:13:32;8.80;;;7.57;;
16998;SDS011;10211;49.476;11.010;2023-09-12T02:15:59;10.47;;;7.50;;
16998;SDS011;10211;49.476;11.010;2023-09-12T02:18:26;9.87;;;7.50;;
16998;SDS011;10211;49.476;11.010;2023-09-12T02:20:54;11.87;;;8.67;;
16998;SDS011;10211;49.476;11.010;2023-09-12T02:23:21;9.33;;;8.40;;
16998;SDS011;10211;49.476;11.010;2023-09-12T02:25:48;10.13;;;9.07;;
16998;SDS011;10211;49.476;11.010;2023-09-12T02:28:14;8.73;;;7.93;;
16998;SDS011;10211;49.476;11.010;2023-09-12T02:30:41;10.07;;;7.20;;
16998;SDS011;10211;49.476;11.010;2023-09-12T02:33:08;8.67;;;7.67;;
16998;SDS011;10211;49.476;11.010;2023-09-12T02:35:35;8.37;;;7.53;;
16998;SDS011;10211;49.476;11.010;2023-09-12T02:38:03;9.30;;;8.13;;
16998;SDS011;10211;49.476;11.010;2023-09-12T02:40:41;14.03;;;8.90;;
16998;SDS011;10211;49.476;11.010;2023-09-12T02:43:08;9.93;;;8.83;;
16998;SDS011;10211;49.476;11.010;2023-09-12T02:45:34;10.63;;;8.93;;
16998;SDS011;10211;49.476;11.010;2023-09-12T02:48:01;15.00;;;8.10;;
16998;SDS011;10211;49.476;11.010;2023-09-12T02:50:29;12.63;;;8.57;;
16998;SDS011;10211;49.476;11.010;2023-09-12T02:52:55;9.47;;;7.80;;
16998;SDS011;10211;49.476;11.010;2023-09-12T02:55:23;9.03;;;8.13;;
16998;SDS011;10211;49.476;11.010;2023-09-12T02:57:50;9.10;;;8.20;;
16998;SDS011;10211;49.476;11.010;2023-09-12T03:00:17;9.03;;;8.17;;
16998;SDS011;10211;49.476;11.010;2023-09-12T03:02:44;9.90;;;7.93;;
16998;SDS011;10211;49.476;11.010;2023-09-12T03:05:12;8.20;;;7.33;;
16998;SDS011;10211;49.476;11.010;2023-09-12T03:07:39;8.80;;;7.80;;
16998;SDS011;10211;49.476;11.010;2023-09-12T03:10:08;11.60;;;8.40;;
16998;SDS011;10211;49.476;11.010;2023-09-12T03:12:36;10.77;;;8.37;;
16998;SDS011;10211;49.476;11.010;2023-09-12T03:15:03;9.27;;;8.20;;
16998;SDS011;10211;49.476;11.010;2023-09-12T03:17:31;8.30;;;7.50;;
16998;SDS011;10211;49.476;11.010;2023-09-12T03:19:58;10.27;;;8.07;;
16998;SDS011;10211;49.476;11.010;2023-09-12T03:22:26;8.90;;;7.57;;
16998;SDS011;10211;49.476;11.010;2023-09-12T03:24:52;10.10;;;8.43;;
16998;SDS011;10211;49.476;11.010;2023-09-12T03:27:19;8.27;;;7.53;;
16998;SDS011;10211;49.476;11.010;2023-09-12T03:29:47;9.13;;;8.03;;
16998;SDS011;10211;49.476;11.010;2023-09-12T03:32:14;9.77;;;8.20;;
16998;SDS011;10211;49.476;11.010;2023-09-12T03:34:41;10.57;;;8.30;;
16998;SDS011;10211;49.476;11.010;2023-09-12T03:37:07;10.27;;;8.33;;
16998;SDS011;10211;49.476;11.010;2023-09-12T03:39:34;8.80;;;7.60;;
16998;SDS011;10211;49.476;11.010;2023-09-12T03:42:01;9.80;;;7.63;;
16998;SDS011;10211;49.476;11.010;2023-09-12T03:44:28;9.47;;;8.07;;
16998;SDS011;10211;49.476;11.010;2023-09-12T03:46:56;9.73;;;7.70;;
16998;SDS011;10211;49.476;11.010;2023-09-12T03:49:23;9.17;;;8.27;;
16998;SDS011;10211;49.476;11.010;2023-09-12T03:51:50;10.77;;;7.67;;
16998;SDS011;10211;49.476;11.010;2023-09-12T03:54:16;8.67;;;7.77;;
16998;SDS011;10211;49.476;11.010;2023-09-12T03:56:43;9.80;;;8.53;;
16998;SDS011;10211;49.476;11.010;2023-09-12T03:59:10;11.90;;;8.77;;
16998;SDS011;10211;49.476;11.010;2023-09-12T04:01:37;11.80;;;8.27;;
16998;SDS011;10211;49.476;11.010;2023-09-12T04:04:05;13.57;;;9.03;;
16998;SDS011;10211;49.476;11.010;2023-09-12T04:06:32;12.40;;;9.77;;
16998;SDS011;10211;49.476;11.010;2023-09-12T04:08:58;11.10;;;9.27;;
16998;SDS011;10211;49.476;11.010;2023-09-12T04:11:25;11.67;;;10.43;;
16998;SDS011;10211;49.476;11.010;2023-09-12T04:13:52;12.53;;;9.77;;
16998;SDS011;10211;49.476;11.010;2023-09-12T04:16:18;10.00;;;9.00;;
16998;SDS011;10211;49.476;11.010;2023-09-12T04:18:45;12.97;;;10.07;;
16998;SDS011;10211;49.476;11.010;2023-09-12T04:21:13;15.13;;;10.27;;
16998;SDS011;10211;49.476;11.010;2023-09-12T04:23:40;14.17;;;9.77;;
16998;SDS011;10211;49.476;11.010;2023-09-12T04:26:07;16.23;;;9.97;;
16998;SDS011;10211;49.476;11.010;2023-09-12T04:28:33;11.17;;;9.23;;
16998;SDS011;10211;49.476;11.010;2023-09-12T04:31:01;9.73;;;8.73;;
16998;SDS011;10211;49.476;11.010;2023-09-12T04:33:28;10.43;;;9.23;;
16998;SDS011;10211;49.476;11.010;2023-09-12T04:35:56;12.93;;;8.50;;
16998;SDS011;10211;49.476;11.010;2023-09-12T04:38:25;12.10;;;9.60;;
16998;SDS011;10211;49.476;11.010;2023-09-12T04:40:55;12.60;;;9.20;;
16998;SDS011;10211;49.476;11.010;2023-09-12T04:43:22;11.87;;;8.70;;
16998;SDS011;10211;49.476;11.010;2023-09-12T04:45:49;13.30;;;8.70;;
16998;SDS011;10211;49.476;11.010;2023-09-12T04:48:16;14.77;;;9.10;;
16998;SDS011;10211;49.476;11.010;2023-09-12T04:50:43;14.60;;;8.93;;
16998;SDS011;10211;49.476;11.010;2023-09-12T04:53:10;10.60;;;9.07;;
16998;SDS011;10211;49.476;11.010;2023-09-12T04:55:38;12.87;;;9.40;;
16998;SDS011;10211;49.476;11.010;2023-09-12T04:58:05;11.23;;;8.27;;
16998;SDS011;10211;49.476;11.010;2023-09-12T05:00:33;9.33;;;7.87;;
16998;SDS011;10211;49.476;11.010;2023-09-12T05:03:00;12.57;;;8.33;;
16998;SDS011;10211;49.476;11.010;2023-09-12T05:05:28;10.80;;;8.67;;
16998;SDS011;10211;49.476;11.010;2023-09-12T05:07:55;11.77;;;7.90;;
16998;SDS011;10211;49.476;11.010;2023-09-12T05:10:22;8.77;;;7.43;;
16998;SDS011;10211;49.476;11.010;2023-09-12T05:12:51;10.17;;;8.10;;
16998;SDS011;10211;49.476;11.010;2023-09-12T05:15:18;9.40;;;8.47;;
16998;SDS011;10211;49.476;11.010;2023-09-12T05:17:45;11.27;;;8.40;;
16998;SDS011;10211;49.476;11.010;2023-09-12T05:20:12;11.03;;;8.53;;
16998;SDS011;10211;49.476;11.010;2023-09-12T05:22:38;11.97;;;8.43;;
16998;SDS011;10211;49.476;11.010;2023-09-12T05:25:05;9.70;;;7.93;;
16998;SDS011;10211;49.476;11.010;2023-09-12T05:27:32;12.23;;;8.07;;
16998;SDS011;10211;49.476;11.010;2023-09-12T05:30:00;9.33;;;8.33;;
16998;SDS011;10211;49.476;11.010;2023-09-12T05:32:27;14.33;;;8.77;;
16998;SDS011;10211;49.476;11.010;2023-09-12T05:34:53;16.73;;;10.20;;
16998;SDS011;10211;49.476;11.010;2023-09-12T05:37:21;12.47;;;8.97;;
16998;SDS011;10211;49.476;11.010;2023-09-12T05:39:47;14.40;;;9.60;;
16998;SDS011;10211;49.476;11.010;2023-09-12T05:42:16;13.27;;;8.50;;
16998;SDS011;10211;49.476;11.010;2023-09-12T05:44:46;15.03;;;9.07;;
16998;SDS011;10211;49.476;11.010;2023-09-12T05:47:15;11.97;;;9.27;;
16998;SDS011;10211;49.476;11.010;2023-09-12T05:49:42;11.53;;;8.20;;
16998;SDS011;10211;49.476;11.010;2023-09-12T05:52:23;12.07;;;9.20;;
16998;SDS011;10211;49.476;11.010;2023-09-12T05:54:49;15.50;;;9.90;;
16998;SDS011;10211;49.476;11.010;2023-09-12T05:57:16;11.93;;;8.20;;
16998;SDS011;10211;49.476;11.010;2023-09-12T05:59:43;10.67;;;8.53;;
16998;SDS011;10211;49.476;11.010;2023-09-12T06:02:09;11.37;;;8.60;;
16998;SDS011;10211;49.476;11.010;2023-09-12T06:04:37;14.33;;;8.70;;
16998;SDS011;10211;49.476;11.010;2023-09-12T06:07:04;11.73;;;8.43;;
16998;SDS011;10211;49.476;11.010;2023-09-12T06:09:31;12.63;;;8.60;;
16998;SDS011;10211;49.476;11.010;2023-09-12T06:11:58;11.73;;;8.10;;
16998;SDS011;10211;49.476;11.010;2023-09-12T06:14:25;12.87;;;9.43;;
16998;SDS011;10211;49.476;11.010;2023-09-12T06:16:51;12.83;;;9.07;;
16998;SDS011;10211;49.476;11.010;2023-09-12T06:19:18;10.27;;;9.07;;
16998;SDS011;10211;49.476;11.010;2023-09-12T06:21:46;18.47;;;10.17;;
16998;SDS011;10211;49.476;11.010;2023-09-12T06:24:14;12.03;;;9.20;;
16998;SDS011;10211;49.476;11.010;2023-09-12T06:26:41;12.20;;;8.60;;
16998;SDS011;10211;49.476;11.010;2023-09-12T06:29:08;10.63;;;8.53;;
16998;SDS011;10211;49.476;11.010;2023-09-12T06:31:35;13.27;;;9.20;;
16998;SDS011;10211;49.476;11.010;2023-09-12T06:34:02;11.27;;;9.70;;
16998;SDS011;10211;49.476;11.010;2023-09-12T06:36:29;13.10;;;9.30;;
16998;SDS011;10211;49.476;11.010;2023-09-12T06:38:57;13.70;;;9.40;;
16998;SDS011;10211;49.476;11.010;2023-09-12T06:41:25;17.07;;;8.00;;
16998;SDS011;10211;49.476;11.010;2023-09-12T06:43:52;14.73;;;9.03;;
16998;SDS011;10211;49.476;11.010;2023-09-12T06:46:21;12.93;;;7.80;;
16998;SDS011;10211;49.476;11.010;2023-09-12T06:48:48;11.13;;;8.40;;
16998;SDS011;10211;49.476;11.010;2023-09-12T06:51:15;12.60;;;7.90;;
16998;SDS011;10211;49.476;11.010;2023-09-12T06:53:43;14.43;;;8.30;;
16998;SDS011;10211;49.476;11.010;2023-09-12T06:56:12;12.73;;;7.50;;
16998;SDS011;10211;49.476;11.010;2023-09-12T06:58:39;11.47;;;7.90;;
16998;SDS011;10211;49.476;11.010;2023-09-12T07:01:06;10.97;;;7.40;;
16998;SDS011;10211;49.476;11.010;2023-09-12T07:03:34;13.07;;;8.07;;
16998;SDS011;10211;49.476;11.010;2023-09-12T07:06:02;13.63;;;7.83;;
16998;SDS011;10211;49.476;11.010;2023-09-12T07:08:30;17.27;;;8.80;;
16998;SDS011;10211;49.476;11.010;2023-09-12T07:10:57;8.27;;;7.37;;
16998;SDS011;10211;49.476;11.010;2023-09-12T07:13:32;11.77;;;7.23;;
16998;SDS011;10211;49.476;11.010;2023-09-12T07:15:59;15.43;;;8.17;;
16998;SDS011;10211;49.476;11.010;2023-09-12T07:18:28;15.53;;;8.33;;
16998;SDS011;10211;49.476;11.010;2023-09-12T07:20:59;13.73;;;8.77;;
16998;SDS011;10211;49.476;11.010;2023-09-12T07:23:27;9.47;;;7.53;;
16998;SDS011;10211;49.476;11.010;2023-09-12T07:25:54;11.57;;;8.30;;
16998;SDS011;10211;49.476;11.010;2023-09-12T07:28:25;9.90;;;7.30;;
16998;SDS011;10211;49.476;11.010;2023-09-12T07:30:53;10.10;;;8.17;;
16998;SDS011;10211;49.476;11.010;2023-09-12T07:33:20;14.70;;;7.70;;
16998;SDS011;10211;49.476;11.010;2023-09-12T07:35:47;13.00;;;7.97;;
16998;SDS011;10211;49.476;11.010;2023-09-12T07:38:14;14.27;;;7.70;;
16998;SDS011;10211;49.476;11.010;2023-09-12T07:40:41;15.57;;;7.33;;
16998;SDS011;10211;49.476;11.010;2023-09-12T07:43:08;12.80;;;8.33;;
16998;SDS011;10211;49.476;11.010;2023-09-12T07:45:36;13.93;;;8.50;;
16998;SDS011;10211;49.476;11.010;2023-09-12T07:48:05;13.83;;;8.20;;
16998;SDS011;10211;49.476;11.010;2023-09-12T07:50:33;14.03;;;8.40;;
16998;SDS011;10211;49.476;11.010;2023-09-12T07:52:59;15.10;;;9.07;;
16998;SDS011;10211;49.476;11.010;2023-09-12T07:55:27;8.23;;;6.90;;
16998;SDS011;10211;49.476;11.010;2023-09-12T07:57:56;8.50;;;7.47;;
16998;SDS011;10211;49.476;11.010;2023-09-12T08:00:23;14.40;;;9.20;;
16998;SDS011;10211;49.476;11.010;2023-09-12T08:02:50;12.80;;;9.03;;
16998;SDS011;10211;49.476;11.010;2023-09-12T08:05:18;14.60;;;8.37;;
16998;SDS011;10211;49.476;11.010;2023-09-12T08:07:45;13.53;;;7.80;;
16998;SDS011;10211;49.476;11.010;2023-09-12T08:10:12;13.43;;;7.63;;
16998;SDS011;10211;49.476;11.010;2023-09-12T08:12:39;10.73;;;6.90;;
16998;SDS011;10211;49.476;11.010;2023-09-12T08:15:07;19.70;;;8.07;;
16998;SDS011;10211;49.476;11.010;2023-09-12T08:17:34;11.00;;;6.57;;
16998;SDS011;10211;49.476;11.010;2023-09-12T08:20:01;9.87;;;7.37;;
16998;SDS011;10211;49.476;11.010;2023-09-12T08:22:30;13.63;;;8.17;;
16998;SDS011;10211;49.476;11.010;2023-09-12T08:24:57;11.32;;;7.13;;
16998;SDS011;10211;49.476;11.010;2023-09-12T08:27:23;13.73;;;7.57;;
16998;SDS011;10211;49.476;11.010;2023-09-12T08:29:50;10.02;;;7.78;;
16998;SDS011;10211;49.476;11.010;2023-09-12T08:32:17;12.52;;;7.28;;
16998;SDS011;10211;49.476;11.010;2023-09-12T08:34:43;12.07;;;6.70;;
16998;SDS011;10211;49.476;11.010;2023-09-12T08:37:11;11.57;;;6.70;;
16998;SDS011;10211;49.476;11.010;2023-09-12T08:39:42;8.98;;;6.65;;
16998;SDS011;10211;49.476;11.010;2023-09-12T08:42:11;8.50;;;6.07;;
16998;SDS011;10211;49.476;11.010;2023-09-12T08:44:39;8.50;;;5.90;;
16998;SDS011;10211;49.476;11.010;2023-09-12T08:47:07;11.02;;;6.38;;
16998;SDS011;10211;49.476;11.010;2023-09-12T08:49:35;10.65;;;6.32;;
16998;SDS011;10211;49.476;11.010;2023-09-12T08:52:03;8.27;;;5.55;;
16998;SDS011;10211;49.476;11.010;2023-09-12T08:54:30;7.85;;;6.40;;
16998;SDS011;10211;49.476;11.010;2023-09-12T08:56:58;9.00;;;5.22;;
16998;SDS011;10211;49.476;11.010;2023-09-12T08:59:27;7.13;;;5.68;;
16998;SDS011;10211;49.476;11.010;2023-09-12T09:01:54;11.13;;;6.22;;
16998;SDS011;10211;49.476;11.010;2023-09-12T09:04:23;7.63;;;5.97;;
16998;SDS011;10211;49.476;11.010;2023-09-12T09:06:51;6.22;;;5.65;;
16998;SDS011;10211;49.476;11.010;2023-09-12T09:09:19;7.28;;;5.68;;
16998;SDS011;10211;49.476;11.010;2023-09-12T09:11:47;10.40;;;6.38;;
16998;SDS011;10211;49.476;11.010;2023-09-12T09:14:16;8.00;;;5.53;;
16998;SDS011;10211;49.476;11.010;2023-09-12T09:16:43;8.05;;;6.85;;
16998;SDS011;10211;49.476;11.010;2023-09-12T09:19:10;11.27;;;5.97;;
16998;SDS011;10211;49.476;11.010;2023-09-12T09:21:37;10.02;;;6.97;;
16998;SDS011;10211;49.476;11.010;2023-09-12T09:24:06;10.05;;;5.95;;
16998;SDS011;10211;49.476;11.010;2023-09-12T09:26:43;7.65;;;5.95;;
16998;SDS011;10211;49.476;11.010;2023-09-12T09:29:13;6.28;;;5.68;;
16998;SDS011;10211;49.476;11.010;2023-09-12T09:31:43;10.25;;;6.05;;
16998;SDS011;10211;49.476;11.010;2023-09-12T09:34:11;14.68;;;6.03;;
16998;SDS011;10211;49.476;11.010;2023-09-12T09:36:42;7.32;;;6.47;;
16998;SDS011;10211;49.476;11.010;2023-09-12T09:39:09;8.35;;;5.45;;
16998;SDS011;10211;49.476;11.010;2023-09-12T09:41:36;12.40;;;6.72;;
16998;SDS011;10211;49.476;11.010;2023-09-12T09:44:04;11.25;;;5.80;;
16998;SDS011;10211;49.476;11.010;2023-09-12T09:46:31;6.90;;;5.78;;
16998;SDS011;10211;49.476;11.010;2023-09-12T09:48:59;7.55;;;5.63;;
16998;SDS011;10211;49.476;11.010;2023-09-12T09:51:27;7.50;;;4.88;;
16998;SDS011;10211;49.476;11.010;2023-09-12T09:53:56;7.72;;;5.18;;
16998;SDS011;10211;49.476;11.010;2023-09-12T09:56:23;8.77;;;5.35;;
16998;SDS011;10211;49.476;11.010;2023-09-12T09:58:51;7.85;;;5.22;;
16998;SDS011;10211;49.476;11.010;2023-09-12T10:01:19;5.72;;;4.97;;
16998;SDS011;10211;49.476;11.010;2023-09-12T10:03:47;7.80;;;5.03;;
16998;SDS011;10211;49.476;11.010;2023-09-12T10:06:16;5.43;;;4.63;;
16998;SDS011;10211;49.476;11.010;2023-09-12T10:08:44;9.48;;;5.50;;
16998;SDS011;10211;49.476;11.010;2023-09-12T10:11:15;7.38;;;5.63;;
16998;SDS011;10211;49.476;11.010;2023-09-12T10:13:45;10.63;;;5.85;;
16998;SDS011;10211;49.476;11.010;2023-09-12T10:16:15;6.95;;;5.13;;
16998;SDS011;10211;49.476;11.010;2023-09-12T10:18:44;7.40;;;5.90;;
16998;SDS011;10211;49.476;11.010;2023-09-12T10:21:20;7.30;;;5.60;;
16998;SDS011;10211;49.476;11.010;2023-09-12T10:23:52;5.78;;;5.15;;
16998;SDS011;10211;49.476;11.010;2023-09-12T10:26:20;9.38;;;5.60;;
16998;SDS011;10211;49.476;11.010;2023-09-12T10:28:48;6.72;;;5.20;;
16998;SDS011;10211;49.476;11.010;2023-09-12T10:31:17;5.90;;;5.00;;
16998;SDS011;10211;49.476;11.010;2023-09-12T10:33:45;9.93;;;5.53;;
16998;SDS011;10211;49.476;11.010;2023-09-12T10:36:12;6.25;;;5.40;;
16998;SDS011;10211;49.476;11.010;2023-09-12T10:38:43;6.68;;;5.45;;
16998;SDS011;10211;49.476;11.010;2023-09-12T10:41:11;6.63;;;5.32;;
16998;SDS011;10211;49.476;11.010;2023-09-12T10:43:39;6.07;;;5.47;;
16998;SDS011;10211;49.476;11.010;2023-09-12T10:46:07;10.63;;;5.88;;
16998;SDS011;10211;49.476;11.010;2023-09-12T10:48:34;5.38;;;5.00;;
16998;SDS011;10211;49.476;11.010;2023-09-12T10:51:01;7.35;;;5.30;;
16998;SDS011;10211;49.476;11.010;2023-09-12T10:53:30;6.25;;;5.72;;
16998;SDS011;10211;49.476;11.010;2023-09-12T10:56:00;7.53;;;5.15;;
16998;SDS011;10211;49.476;11.010;2023-09-12T11:01:42;5.78;;;5.15;;
16998;SDS011;10211;49.476;11.010;2023-09-12T11:04:33;6.82;;;5.45;;
16998;SDS011;10211;49.476;11.010;2023-09-12T11:07:02;6.20;;;5.47;;
16998;SDS011;10211;49.476;11.010;2023-09-12T11:12:49;7.13;;;5.32;;
16998;SDS011;10211;49.476;11.010;2023-09-12T11:15:17;6.45;;;5.95;;
16998;SDS011;10211;49.476;11.010;2023-09-12T11:17:45;5.68;;;5.18;;
16998;SDS011;10211;49.476;11.010;2023-09-12T11:20:13;5.57;;;5.07;;
16998;SDS011;10211;49.476;11.010;2023-09-12T11:22:41;7.03;;;5.80;;
16998;SDS011;10211;49.476;11.010;2023-09-12T11:25:16;7.63;;;5.40;;
16998;SDS011;10211;49.476;11.010;2023-09-12T11:27:45;6.53;;;5.93;;
16998;SDS011;10211;49.476;11.010;2023-09-12T11:30:29;9.32;;;5.28;;
16998;SDS011;10211;49.476;11.010;2023-09-12T11:32:57;7.40;;;5.93;;
16998;SDS011;10211;49.476;11.010;2023-09-12T11:35:25;6.35;;;5.40;;
16998;SDS011;10211;49.476;11.010;2023-09-12T11:37:53;9.82;;;5.38;;
16998;SDS011;10211;49.476;11.010;2023-09-12T11:40:22;8.13;;;5.35;;
16998;SDS011;10211;49.476;11.010;2023-09-12T11:42:50;6.15;;;5.53;;
16998;SDS011;10211;49.476;11.010;2023-09-12T11:45:17;6.03;;;5.28;;
16998;SDS011;10211;49.476;11.010;2023-09-12T11:47:46;5.72;;;5.20;;
16998;SDS011;10211;49.476;11.010;2023-09-12T11:50:26;11.32;;;5.38;;
16998;SDS011;10211;49.476;11.010;2023-09-12T11:53:00;6.20;;;5.70;;
16998;SDS011;10211;49.476;11.010;2023-09-12T11:55:33;5.28;;;4.88;;
16998;SDS011;10211;49.476;11.010;2023-09-12T11:58:01;5.65;;;5.15;;
16998;SDS011;10211;49.476;11.010;2023-09-12T12:00:28;5.63;;;5.13;;
16998;SDS011;10211;49.476;11.010;2023-09-12T12:02:56;9.68;;;5.28;;
16998;SDS011;10211;49.476;11.010;2023-09-12T12:05:24;5.60;;;5.13;;
16998;SDS011;10211;49.476;11.010;2023-09-12T12:07:51;6.07;;;5.05;;
16998;SDS011;10211;49.476;11.010;2023-09-12T12:10:18;6.72;;;5.30;;
16998;SDS011;10211;49.476;11.010;2023-09-12T12:12:45;5.97;;;5.00;;
16998;SDS011;10211;49.476;11.010;2023-09-12T12:15:12;5.53;;;5.13;;
16998;SDS011;10211;49.476;11.010;2023-09-12T12:17:40;11.27;;;5.30;;
16998;SDS011;10211;49.476;11.010;2023-09-12T12:20:10;5.70;;;5.20;;
16998;SDS011;10211;49.476;11.010;2023-09-12T12:22:37;6.05;;;5.45;;
16998;SDS011;10211;49.476;11.010;2023-09-12T12:25:07;5.60;;;5.10;;
16998;SDS011;10211;49.476;11.010;2023-09-12T12:27:36;6.85;;;5.32;;
16998;SDS011;10211;49.476;11.010;2023-09-12T12:30:04;5.75;;;5.28;;
16998;SDS011;10211;49.476;11.010;2023-09-12T12:32:32;7.20;;;5.80;;
16998;SDS011;10211;49.476;11.010;2023-09-12T12:34:59;5.97;;;5.38;;
16998;SDS011;10211;49.476;11.010;2023-09-12T12:37:29;14.55;;;5.63;;
16998;SDS011;10211;49.476;11.010;2023-09-12T12:39:57;6.47;;;4.30;;
16998;SDS011;10211;49.476;11.010;2023-09-12T12:42:24;5.63;;;4.78;;
16998;SDS011;10211;49.476;11.010;2023-09-12T12:44:52;6.25;;;5.00;;
16998;SDS011;10211;49.476;11.010;2023-09-12T12:47:20;7.65;;;5.35;;
16998;SDS011;10211;49.476;11.010;2023-09-12T12:49:50;7.57;;;4.10;;
16998;SDS011;10211;49.476;11.010;2023-09-12T12:52:21;6.03;;;4.97;;
16998;SDS011;10211;49.476;11.010;2023-09-12T12:54:50;5.82;;;4.38;;
16998;SDS011;10211;49.476;11.010;2023-09-12T12:57:20;6.65;;;4.88;;
16998;SDS011;10211;49.476;11.010;2023-09-12T12:59:47;6.50;;;5.30;;
16998;SDS011;10211;49.476;11.010;2023-09-12T13:02:33;10.63;;;4.95;;
16998;SDS011;10211;49.476;11.010;2023-09-12T13:05:01;6.10;;;4.68;;
16998;SDS011;10211;49.476;11.010;2023-09-12T13:07:28;6.00;;;5.00;;
16998;SDS011;10211;49.476;11.010;2023-09-12T13:09:56;7.97;;;4.38;;
16998;SDS011;10211;49.476;11.010;2023-09-12T13:12:23;5.95;;;4.28;;
16998;SDS011;10211;49.476;11.010;2023-09-12T13:14:49;6.25;;;4.72;;
16998;SDS011;10211;49.476;11.010;2023-09-12T13:17:16;7.85;;;4.53;;
16998;SDS011;10211;49.476;11.010;2023-09-12T13:19:43;5.03;;;4.53;;
16998;SDS011;10211;49.476;11.010;2023-09-12T13:22:10;5.22;;;4.65;;
16998;SDS011;10211;49.476;11.010;2023-09-12T13:24:37;6.50;;;4.43;;
16998;SDS011;10211;49.476;11.010;2023-09-12T13:27:06;6.05;;;4.40;;
16998;SDS011;10211;49.476;11.010;2023-09-12T13:29:32;8.13;;;4.82;;
16998;SDS011;10211;49.476;11.010;2023-09-12T13:31:59;5.18;;;4.20;;
16998;SDS011;10211;49.476;11.010;2023-09-12T13:34:26;6.68;;;5.00;;
16998;SDS011;10211;49.476;11.010;2023-09-12T13:36:53;8.02;;;4.57;;
16998;SDS011;10211;49.476;11.010;2023-09-12T13:39:20;4.95;;;4.35;;
16998;SDS011;10211;49.476;11.010;2023-09-12T13:41:46;6.28;;;4.30;;
16998;SDS011;10211;49.476;11.010;2023-09-12T13:44:15;5.95;;;5.38;;
16998;SDS011;10211;49.476;11.010;2023-09-12T13:46:42;6.43;;;4.47;;
16998;SDS011;10211;49.476;11.010;2023-09-12T13:49:09;5.40;;;4.40;;
16998;SDS011;10211;49.476;11.010;2023-09-12T13:51:36;9.85;;;4.82;;
16998;SDS011;10211;49.476;11.010;2023-09-12T13:54:03;7.80;;;4.60;;
16998;SDS011;10211;49.476;11.010;2023-09-12T13:56:32;7.07;;;4.55;;
16998;SDS011;10211;49.476;11.010;2023-09-12T13:59:00;4.65;;;4.28;;
16998;SDS011;10211;49.476;11.010;2023-09-12T14:01:43;5.10;;;4.60;;
16998;SDS011;10211;49.476;11.010;2023-09-12T14:04:09;4.60;;;4.20;;
16998;SDS011;10211;49.476;11.010;2023-09-12T14:06:38;5.20;;;4.10;;
16998;SDS011;10211;49.476;11.010;2023-09-12T14:09:06;4.72;;;4.20;;
16998;SDS011;10211;49.476;11.010;2023-09-12T14:11:34;7.18;;;4.32;;
16998;SDS011;10211;49.476;11.010;2023-09-12T14:14:02;6.72;;;4.38;;
16998;SDS011;10211;49.476;11.010;2023-09-12T14:16:30;5.65;;;4.18;;
16998;SDS011;10211;49.476;11.010;2023-09-12T14:18:58;4.18;;;3.80;;
16998;SDS011;10211;49.476;11.010;2023-09-12T14:21:25;5.65;;;4.40;;
16998;SDS011;10211;49.476;11.010;2023-09-12T14:23:52;4.70;;;4.30;;
16998;SDS011;10211;49.476;11.010;2023-09-12T14:26:19;7.18;;;3.95;;
16998;SDS011;10211;49.476;11.010;2023-09-12T14:28:45;6.60;;;4.00;;
16998;SDS011;10211;49.476;11.010;2023-09-12T14:31:12;4.70;;;4.18;;
16998;SDS011;10211;49.476;11.010;2023-09-12T14:33:41;10.15;;;4.10;;
16998;SDS011;10211;49.476;11.010;2023-09-12T14:36:09;6.40;;;4.43;;
16998;SDS011;10211;49.476;11.010;2023-09-12T14:38:35;6.43;;;4.90;;
16998;SDS011;10211;49.476;11.010;2023-09-12T14:41:02;6.63;;;4.70;;
16998;SDS011;10211;49.476;11.010;2023-09-12T14:43:30;6.55;;;4.80;;
16998;SDS011;10211;49.476;11.010;2023-09-12T14:45:56;7.03;;;4.15;;